createdAt,value
2022-12-25T00:00:12.663Z,98641.54
2022-12-25T00:03:04.400Z,98644.97
2022-12-25T00:05:32.520Z,98643.84
2022-12-25T00:08:00.424Z,98642.52
2022-12-25T00:10:28.245Z,98640.92
2022-12-25T00:12:56.087Z,98643.09
2022-12-25T00:15:23.791Z,98648.54
2022-12-25T00:17:51.712Z,98652.13
2022-12-25T00:20:19.409Z,98655.25
2022-12-25T00:22:47.123Z,98662.25
2022-12-25T00:25:14.979Z,98662.96
2022-12-25T00:27:42.667Z,98664.63
2022-12-25T00:30:10.564Z,98666.38
2022-12-25T00:32:38.440Z,98675.02
2022-12-25T00:35:06.598Z,98676.02
2022-12-25T00:37:34.452Z,98686.37
2022-12-25T00:40:02.219Z,98690.29
2022-12-25T00:42:30.215Z,98690.84
2022-12-25T00:44:57.867Z,98697.15
2022-12-25T00:47:25.823Z,98700.45
2022-12-25T00:49:53.451Z,98704.52
2022-12-25T00:52:21.597Z,98708.09
2022-12-25T00:54:49.421Z,98709.60
2022-12-25T00:57:17.068Z,98715.02
2022-12-25T00:59:44.839Z,98720.08
2022-12-25T01:02:12.530Z,98724.96
2022-12-25T01:04:40.276Z,98728.48
2022-12-25T01:07:07.979Z,98731.18
2022-12-25T01:09:35.919Z,98731.02
2022-12-25T01:12:03.596Z,98741.34
2022-12-25T01:14:31.482Z,98741.96
2022-12-25T01:16:59.438Z,98745.98
2022-12-25T01:19:27.059Z,98749.20
2022-12-25T01:21:54.868Z,98751.71
2022-12-25T01:24:22.690Z,98752.56
2022-12-25T01:26:50.549Z,98756.98
2022-12-25T01:29:18.253Z,98755.30
2022-12-25T01:31:46.352Z,98758.33
2022-12-25T01:34:14.193Z,98758.11
2022-12-25T01:36:43.120Z,98750.96
2022-12-25T01:39:11.295Z,98749.26
2022-12-25T01:41:39.037Z,98753.61
2022-12-25T01:44:15.819Z,98757.80
2022-12-25T01:46:44.229Z,98763.70
2022-12-25T01:49:18.066Z,98765.67
2022-12-25T01:51:50.817Z,98774.64
2022-12-25T01:54:24.727Z,98777.53
2022-12-25T01:56:56.070Z,98785.33
2022-12-25T01:59:26.362Z,98788.05
2022-12-25T02:01:54.182Z,98795.65
2022-12-25T02:04:24.877Z,98799.57
2022-12-25T02:06:52.569Z,98798.38
2022-12-25T02:09:20.628Z,98799.91
2022-12-25T02:11:48.279Z,98797.35
2022-12-25T02:14:16.162Z,98799.23
2022-12-25T02:16:58.033Z,98791.79
2022-12-25T02:19:36.916Z,98787.57
2022-12-25T02:22:35.475Z,98786.61
2022-12-25T02:25:24.196Z,98786.80
2022-12-25T02:28:01.239Z,98791.07
2022-12-25T02:30:35.776Z,98793.80
2022-12-25T02:33:16.414Z,98796.18
2022-12-25T02:35:51.128Z,98799.95
2022-12-25T02:38:25.377Z,98801.85
2022-12-25T02:40:58.331Z,98803.90
2022-12-25T02:43:41.796Z,98800.55
2022-12-25T02:46:14.398Z,98792.47
2022-12-25T02:48:51.057Z,98786.73
2022-12-25T02:51:19.561Z,98789.13
2022-12-25T02:53:48.985Z,98792.21
2022-12-25T02:56:18.050Z,98790.54
2022-12-25T02:58:47.919Z,98786.50
2022-12-25T03:01:19.447Z,98791.34
2022-12-25T03:03:51.434Z,98798.55
2022-12-25T03:06:23.371Z,98796.95
2022-12-25T03:08:56.107Z,98797.56
2022-12-25T03:11:23.755Z,98799.38
2022-12-25T03:14:04.861Z,98798.45
2022-12-25T03:16:33.072Z,98793.80
2022-12-25T03:19:00.977Z,98784.89
2022-12-25T03:21:28.591Z,98781.55
2022-12-25T03:24:01.160Z,98788.14
2022-12-25T03:26:29.494Z,98793.41
2022-12-25T03:28:57.404Z,98791.92
2022-12-25T03:31:53.638Z,98803.25
2022-12-25T03:34:39.856Z,98809.00
2022-12-25T03:37:26.463Z,98804.75
2022-12-25T03:40:20.534Z,98798.48
2022-12-25T03:42:57.552Z,98802.35
2022-12-25T03:45:35.481Z,98804.55
2022-12-25T03:48:05.141Z,98807.76
2022-12-25T03:50:48.500Z,98809.41
2022-12-25T03:53:22.659Z,98814.11
2022-12-25T03:55:52.490Z,98815.80
2022-12-25T03:58:24.086Z,98819.17
2022-12-25T04:00:51.680Z,98821.66
2022-12-25T04:03:19.403Z,98822.98
2022-12-25T04:05:47.508Z,98824.80
2022-12-25T04:08:15.436Z,98828.66
2022-12-25T04:10:43.139Z,98830.52
2022-12-25T04:13:10.918Z,98831.52
2022-12-25T04:15:38.537Z,98831.17
2022-12-25T04:18:06.640Z,98831.52
2022-12-25T04:20:34.228Z,98832.88
2022-12-25T04:23:02.432Z,98838.80
2022-12-25T04:25:30.132Z,98848.27
2022-12-25T04:28:04.003Z,98852.28
2022-12-25T04:30:31.670Z,98852.95
2022-12-25T04:32:59.502Z,98851.20
2022-12-25T04:35:27.423Z,98859.80
2022-12-25T04:37:55.882Z,98865.17
2022-12-25T04:40:24.163Z,98866.15
2022-12-25T04:42:52.400Z,98861.55
2022-12-25T04:45:20.397Z,98861.06
2022-12-25T04:47:47.967Z,98861.40
2022-12-25T04:50:15.703Z,98863.60
2022-12-25T04:52:43.521Z,98863.26
2022-12-25T04:55:11.816Z,98865.63
2022-12-25T04:57:39.512Z,98870.87
2022-12-25T05:00:08.082Z,98873.92
2022-12-25T05:02:35.982Z,98874.77
2022-12-25T05:05:04.119Z,98870.70
2022-12-25T05:07:33.553Z,98860.92
2022-12-25T05:10:01.157Z,98859.75
2022-12-25T05:12:28.728Z,98867.05
2022-12-25T05:14:56.497Z,98869.40
2022-12-25T05:17:24.446Z,98868.02
2022-12-25T05:19:52.110Z,98870.38
2022-12-25T05:22:19.675Z,98872.73
2022-12-25T05:24:47.389Z,98875.10
2022-12-25T05:27:16.749Z,98875.09
2022-12-25T05:29:44.536Z,98876.12
2022-12-25T05:32:12.223Z,98881.70
2022-12-25T05:34:39.846Z,98879.34
2022-12-25T05:37:07.690Z,98880.02
2022-12-25T05:39:35.479Z,98881.56
2022-12-25T05:42:03.663Z,98885.34
2022-12-25T05:44:31.337Z,98887.95
2022-12-25T05:46:59.195Z,98899.38
2022-12-25T05:49:26.804Z,98897.95
2022-12-25T05:51:54.368Z,98899.40
2022-12-25T05:54:22.047Z,98903.06
2022-12-25T05:56:50.242Z,98907.05
2022-12-25T05:59:18.180Z,98908.13
2022-12-25T06:01:46.876Z,98902.98
2022-12-25T06:04:14.642Z,98903.92
2022-12-25T06:06:42.504Z,98896.75
2022-12-25T06:09:12.488Z,98896.02
2022-12-25T06:11:42.203Z,98909.13
2022-12-25T06:14:13.166Z,98920.20
2022-12-25T06:16:41.419Z,98925.33
2022-12-25T06:19:09.178Z,98927.23
2022-12-25T06:21:37.042Z,98930.15
2022-12-25T06:24:05.136Z,98933.05
2022-12-25T06:26:32.945Z,98938.67
2022-12-25T06:29:00.782Z,98944.77
2022-12-25T06:31:28.608Z,98943.95
2022-12-25T06:33:56.377Z,98948.52
2022-12-25T06:36:26.915Z,98948.38
2022-12-25T06:38:54.566Z,98949.55
2022-12-25T06:41:26.775Z,98958.00
2022-12-25T06:43:57.203Z,98967.45
2022-12-25T06:46:27.641Z,98973.02
2022-12-25T06:48:56.759Z,98972.19
2022-12-25T06:51:29.941Z,98970.85
2022-12-25T06:53:58.518Z,98968.83
2022-12-25T06:56:28.104Z,98972.03
2022-12-25T06:58:58.855Z,98981.82
2022-12-25T07:01:37.972Z,98986.73
2022-12-25T07:04:17.560Z,98992.66
2022-12-25T07:06:45.202Z,98997.41
2022-12-25T07:09:13.051Z,98996.92
2022-12-25T07:11:40.650Z,99011.45
2022-12-25T07:14:21.831Z,99017.88
2022-12-25T07:16:52.076Z,99022.95
2022-12-25T07:19:19.845Z,99035.11
2022-12-25T07:21:47.509Z,99044.05
2022-12-25T07:24:23.099Z,99053.30
2022-12-25T07:26:51.842Z,99066.30
2022-12-25T07:29:19.932Z,99063.23
2022-12-25T07:31:47.791Z,99064.94
2022-12-25T07:34:18.841Z,99059.16
2022-12-25T07:36:46.730Z,99057.98
2022-12-25T07:39:14.342Z,99058.31
2022-12-25T07:41:43.147Z,99061.86
2022-12-25T07:44:10.788Z,99064.38
2022-12-25T07:46:38.732Z,99067.23
2022-12-25T07:49:06.560Z,99067.05
2022-12-25T07:51:34.105Z,99062.31
2022-12-25T07:54:01.693Z,99058.94
2022-12-25T07:56:29.233Z,99057.09
2022-12-25T07:58:56.897Z,99055.36
2022-12-25T08:01:27.167Z,99051.14
2022-12-25T08:03:56.383Z,99050.63
2022-12-25T08:06:26.866Z,99051.98
2022-12-25T08:08:54.640Z,99050.61
2022-12-25T08:11:22.735Z,99055.65
2022-12-25T08:13:51.091Z,99060.20
2022-12-25T08:16:18.910Z,99056.62
2022-12-25T08:18:46.631Z,99058.63
2022-12-25T08:21:15.246Z,99060.98
2022-12-25T08:23:45.669Z,99059.42
2022-12-25T08:26:17.614Z,99061.76
2022-12-25T08:28:45.452Z,99068.15
2022-12-25T08:31:19.822Z,99065.09
2022-12-25T08:33:50.153Z,99053.90
2022-12-25T08:36:18.667Z,99046.92
2022-12-25T08:38:46.839Z,99045.36
2022-12-25T08:41:16.438Z,99040.77
2022-12-25T08:43:45.501Z,99034.13
2022-12-25T08:46:13.628Z,99035.61
2022-12-25T08:48:49.076Z,99034.20
2022-12-25T08:51:20.366Z,99039.41
2022-12-25T08:53:50.931Z,99050.86
2022-12-25T08:56:19.816Z,99066.37
2022-12-25T08:58:47.379Z,99076.14
2022-12-25T09:01:15.642Z,99081.00
2022-12-25T09:03:43.619Z,99084.34
2022-12-25T09:06:15.083Z,99083.28
2022-12-25T09:08:48.794Z,99083.73
2022-12-25T09:11:19.642Z,99086.23
2022-12-25T09:13:48.915Z,99088.00
2022-12-25T09:16:19.734Z,99088.44
2022-12-25T09:18:47.584Z,99093.42
2022-12-25T09:21:16.715Z,99091.84
2022-12-25T09:23:45.023Z,99090.73
2022-12-25T09:26:15.799Z,99091.65
2022-12-25T09:28:50.801Z,99093.75
2022-12-25T09:31:21.696Z,99093.80
2022-12-25T09:33:50.874Z,99097.09
2022-12-25T09:36:18.769Z,99094.11
2022-12-25T09:38:46.446Z,99094.18
2022-12-25T09:41:26.887Z,99094.25
2022-12-25T09:44:06.790Z,99093.48
2022-12-25T09:47:10.729Z,99100.33
2022-12-25T09:50:10.511Z,99111.39
2022-12-25T09:53:24.986Z,99107.70
2022-12-25T09:56:04.612Z,99111.66
2022-12-25T09:58:33.977Z,99117.02
2022-12-25T10:01:28.938Z,99116.60
2022-12-25T10:03:59.748Z,99111.59
2022-12-25T10:06:51.622Z,99105.23
2022-12-25T10:09:38.909Z,99104.48
2022-12-25T10:12:22.352Z,99108.42
2022-12-25T10:15:07.997Z,99103.22
2022-12-25T10:17:51.570Z,99098.23
2022-12-25T10:20:59.727Z,99103.55
2022-12-25T10:23:30.774Z,99098.31
2022-12-25T10:25:58.451Z,99095.52
2022-12-25T10:28:55.822Z,99094.75
2022-12-25T10:31:27.395Z,99088.66
2022-12-25T10:33:55.686Z,99085.98
2022-12-25T10:36:28.851Z,99090.98
2022-12-25T10:38:56.591Z,99091.36
2022-12-25T10:41:39.474Z,99090.38
2022-12-25T10:44:33.907Z,99083.41
2022-12-25T10:47:04.208Z,99080.04
2022-12-25T10:49:33.403Z,99070.40
2022-12-25T10:52:02.720Z,99062.19
2022-12-25T10:54:35.852Z,99063.63
2022-12-25T10:57:09.856Z,99065.20
2022-12-25T10:59:55.710Z,99066.06
2022-12-25T11:02:23.362Z,99059.13
2022-12-25T11:04:58.446Z,99056.22
2022-12-25T11:07:26.596Z,99053.14
2022-12-25T11:10:02.678Z,99051.11
2022-12-25T11:12:37.870Z,99045.16
2022-12-25T11:15:27.984Z,99045.13
2022-12-25T11:17:55.497Z,99037.88
2022-12-25T11:20:24.477Z,99038.92
2022-12-25T11:22:52.454Z,99035.71
2022-12-25T11:25:26.375Z,99032.05
2022-12-25T11:28:03.360Z,99031.92
2022-12-25T11:30:33.560Z,99031.97
2022-12-25T11:33:04.720Z,99037.13
2022-12-25T11:35:43.074Z,99039.73
2022-12-25T11:38:11.145Z,99038.63
2022-12-25T11:40:51.925Z,99035.80
2022-12-25T11:43:24.901Z,99036.73
2022-12-25T11:45:59.191Z,99036.36
2022-12-25T11:48:56.628Z,99038.38
2022-12-25T11:51:29.149Z,99042.80
2022-12-25T11:54:05.017Z,99036.75
2022-12-25T11:56:32.714Z,99035.17
2022-12-25T11:59:17.760Z,99023.89
2022-12-25T12:01:55.084Z,99023.52
2022-12-25T12:04:31.934Z,99024.09
2022-12-25T12:07:17.067Z,99026.57
2022-12-25T12:10:03.800Z,99027.84
2022-12-25T12:12:49.078Z,99026.45
2022-12-25T12:15:41.897Z,99025.19
2022-12-25T12:18:18.685Z,99028.67
2022-12-25T12:20:58.561Z,99029.56
2022-12-25T12:23:28.699Z,99026.26
2022-12-25T12:25:57.376Z,99023.58
2022-12-25T12:28:29.922Z,99014.85
2022-12-25T12:31:06.403Z,99014.67
2022-12-25T12:33:42.662Z,99011.39
2022-12-25T12:36:14.485Z,99007.95
2022-12-25T12:38:44.376Z,99010.83
2022-12-25T12:41:13.567Z,99009.13
2022-12-25T12:44:03.244Z,99007.45
2022-12-25T12:46:35.999Z,99010.98
2022-12-25T12:49:16.714Z,99015.54
2022-12-25T12:51:44.358Z,99010.52
2022-12-25T12:54:26.533Z,99006.77
2022-12-25T12:56:58.504Z,99005.64
2022-12-25T12:59:32.755Z,99008.77
2022-12-25T13:02:08.879Z,99013.38
2022-12-25T13:04:39.595Z,99010.91
2022-12-25T13:07:30.929Z,99011.02
2022-12-25T13:10:25.821Z,99014.84
2022-12-25T13:12:56.141Z,99009.61
2022-12-25T13:15:28.657Z,99012.27
2022-12-25T13:18:01.845Z,99010.09
2022-12-25T13:20:59.351Z,99014.19
2022-12-25T13:23:34.241Z,99016.29
2022-12-25T13:26:12.021Z,99017.05
2022-12-25T13:28:40.490Z,99016.59
2022-12-25T13:31:18.035Z,99025.17
2022-12-25T13:33:56.038Z,99024.02
2022-12-25T13:36:24.789Z,99019.48
2022-12-25T13:38:55.305Z,99016.34
2022-12-25T13:41:26.542Z,99014.41
2022-12-25T13:43:58.230Z,99008.77
2022-12-25T13:46:27.661Z,99004.29
2022-12-25T13:49:01.819Z,99011.33
2022-12-25T13:51:29.817Z,99021.57
2022-12-25T13:54:06.272Z,99022.64
2022-12-25T13:56:35.199Z,99019.80
2022-12-25T13:59:04.433Z,99004.45
2022-12-25T14:01:32.194Z,99005.83
2022-12-25T14:04:00.220Z,99007.89
2022-12-25T14:06:30.111Z,99003.98
2022-12-25T14:08:58.745Z,98999.09
2022-12-25T14:11:29.765Z,98995.25
2022-12-25T14:14:06.400Z,98992.06
2022-12-25T14:16:34.345Z,98991.31
2022-12-25T14:19:03.723Z,98993.70
2022-12-25T14:21:44.137Z,98995.25
2022-12-25T14:24:14.783Z,98995.41
2022-12-25T14:26:43.140Z,99007.74
2022-12-25T14:29:17.901Z,99013.60
2022-12-25T14:31:47.510Z,99008.36
2022-12-25T14:34:23.051Z,99009.42
2022-12-25T14:36:52.915Z,99011.36
2022-12-25T14:39:29.789Z,99007.88
2022-12-25T14:41:57.635Z,99000.33
2022-12-25T14:44:30.155Z,98989.23
2022-12-25T14:47:10.646Z,98980.73
2022-12-25T14:49:38.670Z,98973.43
2022-12-25T14:52:24.563Z,98970.20
2022-12-25T14:55:05.281Z,98967.20
2022-12-25T14:57:38.495Z,98976.72
2022-12-25T15:00:24.370Z,98992.21
2022-12-25T15:02:56.094Z,99001.04
2022-12-25T15:05:34.752Z,99004.27
2022-12-25T15:08:08.329Z,99005.77
2022-12-25T15:13:25.848Z,99010.14
2022-12-25T15:15:58.417Z,99011.44
2022-12-25T15:18:30.961Z,99014.58
2022-12-25T15:20:58.841Z,99018.58
2022-12-25T15:23:26.719Z,99020.71
2022-12-25T15:25:54.369Z,99017.58
2022-12-25T15:28:22.081Z,99018.35
2022-12-25T15:30:49.835Z,99019.11
2022-12-25T15:33:19.152Z,99014.29
2022-12-25T15:35:46.810Z,99003.36
2022-12-25T15:38:14.442Z,98995.14
2022-12-25T15:40:42.662Z,98991.64
2022-12-25T15:43:38.933Z,98984.08
2022-12-25T15:46:01.388Z,98981.73
2022-12-25T15:48:29.188Z,98983.92
2022-12-25T15:50:57.173Z,98982.73
2022-12-25T15:53:24.914Z,98974.28
2022-12-25T15:55:52.716Z,98966.18
2022-12-25T15:58:20.292Z,98960.91
2022-12-25T16:00:47.866Z,98957.20
2022-12-25T16:03:15.423Z,98958.87
2022-12-25T16:05:43.202Z,98959.52
2022-12-25T16:08:11.070Z,98959.69
2022-12-25T16:10:40.418Z,98954.48
2022-12-25T16:13:08.755Z,98947.05
2022-12-25T16:15:37.206Z,98950.95
2022-12-25T16:18:05.595Z,98946.72
2022-12-25T16:20:35.036Z,98947.00
2022-12-25T16:23:02.647Z,98950.84
2022-12-25T16:25:30.424Z,98946.76
2022-12-25T16:27:58.217Z,98948.09
2022-12-25T16:30:26.171Z,98956.89
2022-12-25T16:32:54.125Z,98965.16
2022-12-25T16:35:21.662Z,98966.50
2022-12-25T16:37:49.220Z,98960.94
2022-12-25T16:40:16.839Z,98961.11
2022-12-25T16:42:44.889Z,98961.96
2022-12-25T16:45:12.992Z,98955.55
2022-12-25T16:47:41.225Z,98952.88
2022-12-25T16:50:09.420Z,98950.71
2022-12-25T16:52:37.018Z,98951.89
2022-12-25T16:55:05.532Z,98948.35
2022-12-25T16:57:34.088Z,98940.93
2022-12-25T17:00:01.736Z,98944.48
2022-12-25T17:02:29.737Z,98943.80
2022-12-25T17:04:57.731Z,98940.40
2022-12-25T17:07:25.551Z,98942.94
2022-12-25T17:09:53.756Z,98940.26
2022-12-25T17:12:21.504Z,98939.23
2022-12-25T17:14:49.298Z,98934.35
2022-12-25T17:17:17.262Z,98933.88
2022-12-25T17:19:45.280Z,98929.66
2022-12-25T17:22:13.252Z,98922.89
2022-12-25T17:24:41.120Z,98918.52
2022-12-25T17:27:09.444Z,98916.48
2022-12-25T17:29:37.871Z,98910.02
2022-12-25T17:32:06.926Z,98904.23
2022-12-25T17:34:34.847Z,98885.27
2022-12-25T17:37:02.831Z,98877.23
2022-12-25T17:39:31.067Z,98877.32
2022-12-25T17:41:58.873Z,98880.90
2022-12-25T17:44:26.716Z,98881.64
2022-12-25T17:46:54.516Z,98882.48
2022-12-25T17:49:22.216Z,98874.52
2022-12-25T17:51:50.308Z,98876.23
2022-12-25T17:54:18.202Z,98881.34
2022-12-25T17:56:46.162Z,98884.49
2022-12-25T17:59:14.233Z,98881.17
2022-12-25T18:01:42.048Z,98891.44
2022-12-25T18:04:10.137Z,98892.89
2022-12-25T18:06:37.830Z,98885.54
2022-12-25T18:09:06.110Z,98881.11
2022-12-25T18:11:36.777Z,98880.38
2022-12-25T18:14:06.469Z,98882.02
2022-12-25T18:16:36.929Z,98885.55
2022-12-25T18:19:05.228Z,98883.11
2022-12-25T18:21:32.851Z,98882.55
2022-12-25T18:24:02.947Z,98883.67
2022-12-25T18:26:30.707Z,98882.80
2022-12-25T18:28:58.831Z,98876.66
2022-12-25T18:31:31.680Z,98885.09
2022-12-25T18:34:00.514Z,98891.36
2022-12-25T18:36:29.928Z,98881.52
2022-12-25T18:38:58.421Z,98874.52
2022-12-25T18:41:26.864Z,98868.58
2022-12-25T18:43:55.805Z,98872.98
2022-12-25T18:46:26.468Z,98882.28
2022-12-25T18:48:56.709Z,98887.67
2022-12-25T18:51:24.757Z,98888.30
2022-12-25T18:53:52.491Z,98878.46
2022-12-25T18:56:20.532Z,98874.06
2022-12-25T18:58:49.031Z,98866.77
2022-12-25T19:01:19.975Z,98857.23
2022-12-25T19:03:48.632Z,98843.00
2022-12-25T19:06:18.474Z,98843.17
2022-12-25T19:08:46.895Z,98849.42
2022-12-25T19:11:14.803Z,98855.70
2022-12-25T19:13:42.933Z,98859.41
2022-12-25T19:16:12.159Z,98858.33
2022-12-25T19:18:40.237Z,98859.80
2022-12-25T19:21:10.511Z,98856.52
2022-12-25T19:23:38.543Z,98853.95
2022-12-25T19:26:08.327Z,98853.42
2022-12-25T19:28:37.568Z,98849.86
2022-12-25T19:31:07.495Z,98850.53
2022-12-25T19:33:37.486Z,98846.61
2022-12-25T19:36:08.772Z,98842.17
2022-12-25T19:38:36.722Z,98844.23
2022-12-25T19:41:10.411Z,98840.70
2022-12-25T19:43:39.757Z,98833.45
2022-12-25T19:46:14.755Z,98828.19
2022-12-25T19:48:42.846Z,98819.22
2022-12-25T19:51:18.852Z,98811.09
2022-12-25T19:53:48.499Z,98814.36
2022-12-25T19:56:16.419Z,98819.31
2022-12-25T19:58:44.965Z,98821.34
2022-12-25T20:01:15.538Z,98826.89
2022-12-25T20:03:46.443Z,98817.86
2022-12-25T20:06:18.645Z,98819.18
2022-12-25T20:08:48.075Z,98812.95
2022-12-25T20:11:17.274Z,98805.04
2022-12-25T20:13:45.337Z,98795.05
2022-12-25T20:16:13.453Z,98787.02
2022-12-25T20:18:41.736Z,98784.47
2022-12-25T20:21:23.693Z,98785.16
2022-12-25T20:23:52.906Z,98788.71
2022-12-25T20:26:23.759Z,98784.17
2022-12-25T20:28:52.117Z,98785.75
2022-12-25T20:31:26.094Z,98784.28
2022-12-25T20:33:55.791Z,98782.48
2022-12-25T20:36:24.231Z,98784.58
2022-12-25T20:38:52.199Z,98781.75
2022-12-25T20:41:26.784Z,98774.19
2022-12-25T20:43:55.620Z,98773.38
2022-12-25T20:46:24.499Z,98763.58
2022-12-25T20:48:52.362Z,98754.16
2022-12-25T20:51:25.151Z,98758.42
2022-12-25T20:53:53.859Z,98752.52
2022-12-25T20:56:24.430Z,98749.34
2022-12-25T20:58:56.591Z,98741.60
2022-12-25T21:01:24.790Z,98740.98
2022-12-25T21:03:53.665Z,98742.20
2022-12-25T21:06:22.314Z,98744.13
2022-12-25T21:08:50.064Z,98731.48
2022-12-25T21:11:18.097Z,98728.65
2022-12-25T21:13:46.333Z,98737.96
2022-12-25T21:16:17.812Z,98749.84
2022-12-25T21:18:46.865Z,98751.36
2022-12-25T21:21:15.424Z,98745.44
2022-12-25T21:23:43.172Z,98726.52
2022-12-25T21:26:21.816Z,98707.95
2022-12-25T21:28:51.898Z,98693.92
2022-12-25T21:31:20.365Z,98686.50
2022-12-25T21:33:48.319Z,98687.45
2022-12-25T21:36:18.010Z,98693.48
2022-12-25T21:38:46.131Z,98701.89
2022-12-25T21:41:14.820Z,98716.55
2022-12-25T21:43:42.986Z,98716.21
2022-12-25T21:46:13.556Z,98714.02
2022-12-25T21:48:42.760Z,98711.20
2022-12-25T21:51:19.327Z,98707.88
2022-12-25T21:53:47.351Z,98705.85
2022-12-25T21:56:16.627Z,98698.96
2022-12-25T21:58:44.501Z,98697.14
2022-12-25T22:01:12.456Z,98695.81
2022-12-25T22:03:40.652Z,98705.16
2022-12-25T22:06:12.768Z,98699.95
2022-12-25T22:08:43.291Z,98691.37
2022-12-25T22:11:11.309Z,98686.64
2022-12-25T22:13:39.410Z,98689.50
2022-12-25T22:16:07.633Z,98689.85
2022-12-25T22:18:35.608Z,98691.18
2022-12-25T22:21:03.524Z,98694.73
2022-12-25T22:23:31.275Z,98699.66
2022-12-25T22:25:59.136Z,98688.00
2022-12-25T22:28:27.751Z,98674.98
2022-12-25T22:30:55.701Z,98673.66
2022-12-25T22:33:23.480Z,98679.90
2022-12-25T22:36:09.939Z,98673.95
2022-12-25T22:38:42.536Z,98659.27
2022-12-25T22:41:10.556Z,98652.19
2022-12-25T22:44:15.313Z,98665.41
2022-12-25T22:46:26.448Z,98662.39
2022-12-25T22:48:54.413Z,98651.39
2022-12-25T22:51:22.290Z,98648.89
2022-12-25T22:53:50.305Z,98654.55
2022-12-25T22:56:17.891Z,98655.25
2022-12-25T22:58:45.760Z,98643.92
2022-12-25T23:01:13.713Z,98635.61
2022-12-25T23:03:41.613Z,98632.60
2022-12-25T23:06:09.543Z,98630.09
2022-12-25T23:08:37.480Z,98633.52
2022-12-25T23:11:05.659Z,98646.48
2022-12-25T23:13:33.892Z,98652.73
2022-12-25T23:16:01.962Z,98646.27
2022-12-25T23:18:29.828Z,98635.13
2022-12-25T23:21:01.188Z,98642.54
2022-12-25T23:23:28.775Z,98642.91
2022-12-25T23:25:57.248Z,98643.13
2022-12-25T23:28:24.815Z,98650.77
2022-12-25T23:30:52.635Z,98655.89
2022-12-25T23:33:20.766Z,98654.08
2022-12-25T23:35:48.630Z,98644.45
2022-12-25T23:38:16.461Z,98645.15
2022-12-25T23:40:44.174Z,98648.72
2022-12-25T23:43:11.730Z,98641.02
2022-12-25T23:45:40.377Z,98640.95
2022-12-25T23:48:08.840Z,98629.36
2022-12-25T23:50:36.546Z,98618.93
2022-12-25T23:53:04.744Z,98606.61
2022-12-25T23:55:33.607Z,98604.77
2022-12-25T23:58:01.399Z,98602.48
